createdAt,value
2019-03-17T00:01:27.045Z,11.63
2019-03-17T00:06:32.591Z,14.60
2019-03-17T00:11:38.147Z,8.30
2019-03-17T00:16:43.667Z,12.73
2019-03-17T00:21:50.460Z,9.30
2019-03-17T00:26:55.926Z,11.93
2019-03-17T00:32:01.587Z,15.90
2019-03-17T00:37:07.264Z,9.50
2019-03-17T00:42:12.735Z,13.80
2019-03-17T00:47:18.254Z,6.90
2019-03-17T00:52:23.954Z,17.93
2019-03-17T00:57:30.340Z,16.95
2019-03-17T01:02:35.770Z,7.03
2019-03-17T01:07:41.317Z,18.73
2019-03-17T01:12:46.783Z,13.17
2019-03-17T01:17:52.227Z,11.37
2019-03-17T01:22:57.782Z,14.00
2019-03-17T01:28:01.139Z,13.80
2019-03-17T01:33:06.701Z,14.27
2019-03-17T01:38:12.141Z,17.63
2019-03-17T01:43:17.562Z,11.80
2019-03-17T01:48:22.984Z,11.03
2019-03-17T01:53:28.437Z,15.57
2019-03-17T01:58:33.888Z,17.13
2019-03-17T02:03:39.409Z,14.37
2019-03-17T02:08:44.852Z,12.80
2019-03-17T02:13:50.360Z,12.90
2019-03-17T02:18:56.007Z,6.57
2019-03-17T02:24:01.528Z,10.03
2019-03-17T02:29:07.157Z,10.13
2019-03-17T02:34:12.653Z,9.63
2019-03-17T02:39:18.333Z,6.37
2019-03-17T02:44:23.676Z,7.60
2019-03-17T02:49:29.031Z,4.57
2019-03-17T02:54:34.550Z,12.35
2019-03-17T02:59:39.957Z,7.40
2019-03-17T03:04:45.364Z,8.70
2019-03-17T03:09:50.843Z,6.53
2019-03-17T03:14:56.306Z,4.37
2019-03-17T03:20:01.801Z,7.13
2019-03-17T03:25:07.612Z,10.37
2019-03-17T03:30:13.338Z,6.80
2019-03-17T03:35:18.881Z,11.50
2019-03-17T03:40:24.281Z,7.00
2019-03-17T03:45:29.673Z,3.33
2019-03-17T03:50:35.281Z,5.90
2019-03-17T03:55:42.363Z,3.30
2019-03-17T04:00:48.058Z,2.63
2019-03-17T04:05:53.716Z,5.10
2019-03-17T04:10:59.115Z,4.30
2019-03-17T04:16:04.481Z,10.47
2019-03-17T04:21:09.985Z,4.60
2019-03-17T04:26:15.555Z,6.67
2019-03-17T04:31:21.106Z,8.73
2019-03-17T04:36:39.516Z,12.13
2019-03-17T04:41:33.685Z,8.50
2019-03-17T04:46:39.167Z,9.33
2019-03-17T04:51:44.512Z,7.70
2019-03-17T04:56:49.946Z,7.83
2019-03-17T05:01:55.425Z,10.60
2019-03-17T05:07:00.935Z,19.80
2019-03-17T05:12:06.596Z,12.70
2019-03-17T05:17:12.089Z,6.43
2019-03-17T05:22:17.605Z,10.50
2019-03-17T05:27:23.293Z,4.07
2019-03-17T05:32:28.719Z,11.87
2019-03-17T05:37:34.146Z,13.97
2019-03-17T05:42:40.909Z,7.92
2019-03-17T05:47:46.574Z,6.40
2019-03-17T05:52:52.000Z,9.37
2019-03-17T05:57:57.504Z,7.23
2019-03-17T06:03:03.021Z,9.77
2019-03-17T06:08:08.486Z,11.50
2019-03-17T06:13:13.869Z,7.97
2019-03-17T06:18:19.420Z,12.33
2019-03-17T06:23:24.913Z,10.50
2019-03-17T06:28:30.314Z,9.03
2019-03-17T06:33:35.761Z,8.83
2019-03-17T06:38:41.209Z,13.40
2019-03-17T06:43:46.593Z,13.87
2019-03-17T06:48:52.133Z,8.57
2019-03-17T06:53:57.665Z,5.93
2019-03-17T06:59:03.096Z,5.83
2019-03-17T07:04:08.520Z,13.53
2019-03-17T07:09:14.029Z,4.43
2019-03-17T07:14:19.509Z,11.20
2019-03-17T07:19:24.957Z,6.50
2019-03-17T07:24:30.424Z,7.33
2019-03-17T07:29:35.920Z,12.73
2019-03-17T07:34:41.444Z,8.20
2019-03-17T07:39:46.919Z,5.97
2019-03-17T07:44:52.290Z,4.40
2019-03-17T07:49:57.792Z,4.67
2019-03-17T07:55:03.216Z,3.43
2019-03-17T08:00:09.666Z,1.53
2019-03-17T08:05:15.296Z,1.53
2019-03-17T08:10:20.824Z,5.03
2019-03-17T08:15:26.339Z,8.60
2019-03-17T08:20:31.804Z,7.27
2019-03-17T08:25:37.217Z,4.07
2019-03-17T08:30:52.384Z,8.50
2019-03-17T08:35:50.187Z,8.57
2019-03-17T08:40:55.829Z,8.00
2019-03-17T08:46:01.247Z,7.27
2019-03-17T08:51:06.972Z,8.67
2019-03-17T08:56:12.389Z,3.33
2019-03-17T09:01:17.834Z,5.53
2019-03-17T09:06:23.754Z,1.43
2019-03-17T09:11:29.187Z,3.90
2019-03-17T09:16:34.641Z,4.53
2019-03-17T09:21:39.990Z,4.03
2019-03-17T09:26:45.363Z,3.73
2019-03-17T09:31:50.759Z,7.40
2019-03-17T09:36:56.253Z,4.33
2019-03-17T09:42:04.634Z,2.80
2019-03-17T09:47:10.040Z,4.70
2019-03-17T09:52:15.456Z,3.87
2019-03-17T09:57:20.970Z,5.83
2019-03-17T10:02:26.326Z,7.43
2019-03-17T10:07:31.793Z,5.72
2019-03-17T10:12:37.306Z,4.63
2019-03-17T10:17:42.875Z,1.63
2019-03-17T10:22:48.351Z,4.60
2019-03-17T10:27:54.000Z,2.80
2019-03-17T10:32:59.581Z,5.47
2019-03-17T10:38:05.065Z,11.30
2019-03-17T10:43:10.590Z,8.40
2019-03-17T10:48:19.938Z,7.53
2019-03-17T10:53:24.033Z,9.58
2019-03-17T10:58:29.564Z,2.73
2019-03-17T11:03:35.026Z,8.45
2019-03-17T11:08:40.448Z,5.33
2019-03-17T11:13:45.921Z,5.63
2019-03-17T11:18:51.471Z,7.67
2019-03-17T11:23:56.925Z,4.33
2019-03-17T11:29:02.534Z,7.43
2019-03-17T11:34:08.006Z,5.67
2019-03-17T11:39:13.471Z,5.53
2019-03-17T11:44:19.268Z,6.73
2019-03-17T11:49:24.922Z,9.57
2019-03-17T11:54:30.595Z,11.37
2019-03-17T11:59:36.327Z,8.70
2019-03-17T12:04:41.985Z,9.93
2019-03-17T12:09:50.321Z,12.20
2019-03-17T12:14:54.676Z,6.90
2019-03-17T12:20:00.376Z,7.77
2019-03-17T12:25:06.157Z,5.77
2019-03-17T12:30:20.144Z,5.60
2019-03-17T12:35:25.619Z,5.07
2019-03-17T12:40:31.233Z,8.83
2019-03-17T12:45:36.744Z,7.73
2019-03-17T12:50:42.343Z,11.00
2019-03-17T12:55:47.724Z,11.83
2019-03-17T13:00:53.311Z,10.47
2019-03-17T13:05:58.802Z,8.87
2019-03-17T13:11:04.274Z,7.03
2019-03-17T13:16:09.709Z,6.37
2019-03-17T13:21:15.157Z,9.77
2019-03-17T13:26:22.683Z,7.47
2019-03-17T13:31:28.121Z,10.33
2019-03-17T13:36:33.670Z,6.35
2019-03-17T13:41:39.204Z,6.05
2019-03-17T13:46:44.687Z,7.67
2019-03-17T13:51:50.308Z,10.40
2019-03-17T13:56:55.789Z,14.83
2019-03-17T14:02:01.394Z,10.00
2019-03-17T14:07:06.841Z,12.03
2019-03-17T14:12:12.289Z,13.30
2019-03-17T14:17:17.760Z,10.53
2019-03-17T14:22:24.003Z,17.43
2019-03-17T14:27:29.561Z,12.20
2019-03-17T14:32:35.219Z,14.53
2019-03-17T14:37:40.744Z,8.93
2019-03-17T14:42:46.642Z,8.97
2019-03-17T14:47:52.310Z,12.40
2019-03-17T14:53:00.614Z,13.37
2019-03-17T14:58:05.104Z,14.13
2019-03-17T15:03:10.570Z,13.50
2019-03-17T15:08:16.191Z,6.40
2019-03-17T15:13:21.856Z,13.53
2019-03-17T15:18:27.543Z,14.57
2019-03-17T15:23:32.997Z,12.03
2019-03-17T15:28:41.510Z,13.60
2019-03-17T15:33:47.217Z,10.40
2019-03-17T15:38:52.821Z,20.50
2019-03-17T15:43:58.411Z,15.13
2019-03-17T15:49:03.853Z,10.13
2019-03-17T15:54:09.536Z,19.07
2019-03-17T15:59:15.106Z,11.30
2019-03-17T16:04:20.631Z,13.70
2019-03-17T16:09:28.507Z,18.20
2019-03-17T16:14:33.270Z,19.97
2019-03-17T16:19:38.816Z,13.72
2019-03-17T16:24:44.514Z,17.17
2019-03-17T16:29:49.961Z,16.80
2019-03-17T16:34:55.397Z,14.80
2019-03-17T16:40:00.821Z,25.43
2019-03-17T16:45:07.399Z,20.13
2019-03-17T16:50:14.678Z,18.07
2019-03-17T16:55:20.347Z,23.70
2019-03-17T17:00:26.546Z,18.85
2019-03-17T17:05:34.905Z,16.33
2019-03-17T17:10:39.333Z,28.17
2019-03-17T17:15:44.954Z,19.63
2019-03-17T17:20:50.526Z,19.37
2019-03-17T17:25:55.959Z,14.17
2019-03-17T17:31:01.452Z,21.77
2019-03-17T17:36:06.959Z,25.07
2019-03-17T17:41:12.507Z,23.33
2019-03-17T17:46:17.937Z,22.63
2019-03-17T17:51:23.475Z,24.77
2019-03-17T17:56:29.040Z,24.50
2019-03-17T18:01:34.532Z,31.50
2019-03-17T18:06:40.087Z,22.67
2019-03-17T18:11:45.532Z,23.53
2019-03-17T18:16:51.052Z,29.63
2019-03-17T18:21:56.601Z,18.40
2019-03-17T18:27:02.319Z,28.73
2019-03-17T18:32:07.961Z,27.93
2019-03-17T18:37:16.002Z,14.53
2019-03-17T18:42:32.611Z,26.90
2019-03-17T18:47:28.782Z,26.80
2019-03-17T18:52:34.499Z,22.48
2019-03-17T18:57:42.073Z,20.12
2019-03-17T19:02:47.346Z,24.87
2019-03-17T19:07:52.886Z,25.53
2019-03-17T19:12:58.393Z,23.03
2019-03-17T19:18:03.961Z,26.10
2019-03-17T19:23:09.697Z,21.70
2019-03-17T19:28:15.321Z,20.70
2019-03-17T19:33:20.879Z,28.97
2019-03-17T19:38:26.490Z,22.43
2019-03-17T19:43:32.145Z,20.63
2019-03-17T19:48:37.702Z,24.40
2019-03-17T19:53:43.271Z,22.52
2019-03-17T19:58:48.741Z,27.80
2019-03-17T20:03:54.164Z,12.43
2019-03-17T20:08:59.859Z,14.17
2019-03-17T20:14:07.181Z,24.87
2019-03-17T20:19:12.798Z,23.43
2019-03-17T20:24:18.393Z,21.60
2019-03-17T20:29:25.021Z,34.92
2019-03-17T20:34:30.767Z,23.63
2019-03-17T20:39:36.360Z,20.80
2019-03-17T20:44:42.100Z,21.80
2019-03-17T20:49:47.819Z,16.47
2019-03-17T20:54:53.514Z,23.07
2019-03-17T20:59:59.180Z,18.77
2019-03-17T21:05:05.042Z,20.47
2019-03-17T21:10:11.460Z,18.73
2019-03-17T21:15:16.939Z,14.87
2019-03-17T21:20:22.521Z,16.53
2019-03-17T21:25:28.082Z,23.73
2019-03-17T21:30:33.601Z,28.07
2019-03-17T21:35:39.059Z,27.10
2019-03-17T21:41:01.691Z,22.37
2019-03-17T21:45:51.880Z,28.33
2019-03-17T21:50:57.378Z,24.83
2019-03-17T21:56:06.200Z,26.10
2019-03-17T22:01:12.041Z,20.33
2019-03-17T22:06:17.522Z,25.73
2019-03-17T22:11:23.310Z,19.80
2019-03-17T22:16:29.781Z,22.63
2019-03-17T22:21:35.299Z,14.57
2019-03-17T22:26:40.881Z,21.57
2019-03-17T22:31:46.664Z,18.45
2019-03-17T22:36:52.361Z,19.27
2019-03-17T22:41:58.024Z,16.23
2019-03-17T22:47:03.562Z,14.57
2019-03-17T22:52:09.206Z,14.37
2019-03-17T22:57:15.221Z,18.67
2019-03-17T23:02:23.779Z,17.63
2019-03-17T23:07:29.480Z,13.37
2019-03-17T23:12:35.272Z,18.23
2019-03-17T23:17:41.219Z,20.00
2019-03-17T23:22:46.827Z,21.87
2019-03-17T23:27:52.441Z,19.80
2019-03-17T23:32:57.980Z,20.03
2019-03-17T23:38:03.507Z,21.47
2019-03-17T23:43:09.082Z,16.87
2019-03-17T23:48:14.771Z,11.57
2019-03-17T23:53:20.221Z,24.00
2019-03-17T23:58:25.802Z,12.83
